• Join FlightAware (Why Join?)
  • Login
  • US Flag 
06:51PM EDT


 

Airport Tracker/Info


-or-


 

Live Flight TrackerFlight Track Log ✈ VOZ1556 ✈ 12-May-2013 ✈ YHBA / HVB - YSSY / SYD

Flight Track Log - Related Links

Times and Time Zones

All times are in EDT time to prevent confusion due to time zone crossing. See the VOZ1556 flight status page for this flight to view local times or setup timezone preferences in your user account.

Time Position Orientation Groundspeed Altitude Reporting Facility
EDT Latitude Longitude Course Direction KTS MPH feet Rate Location/Type
11:28PM -25.3188 152.8803 148° Southeast 16,600  Level Aus ATC (Calculated)
11:29PM -25.3742 152.9142 145° Southeast 16,600 -4,560 Level Aus ATC (Calculated)
11:29PM -25.3742 152.9142 145° Southeast 16,600 -7,860 Level Aus ATC (Calculated)
11:30PM -25.4429 152.9668 154° Southeast 286 329 6,800 -4,740 Descending Aus ATC (RADAR)
11:31PM -25.4832 152.9886 154° Southeast 282 325 8,700 2,700 Climbing Aus ATC (RADAR)
11:31PM -25.4930 152.9930 154° Southeast 280 322 9,000 2,220 Climbing FlightAware
11:32PM -25.5460 153.0250 151° Southeast 314 361 10,900 2,700 Climbing FlightAware
11:32PM -25.5962 153.0539 151° Southeast 330 380 12,500 2,400 Climbing Aus ATC (RADAR)
11:32PM -25.5970 153.0550 151° Southeast 337 388 12,500 3,060 Level FlightAware
11:33PM -25.6440 153.0840 151° Southeast 341 392 14,300 2,760 Climbing Aus ATC (RADAR)
11:33PM -25.6650 153.0950 151° Southeast 351 404 14,600 2,580 Climbing FlightAware
11:33PM -25.7100 153.1216 151° Southeast 357 411 16,200 2,700 Climbing Aus ATC (RADAR)
11:34PM -25.7230 153.1300 151° Southeast 364 419 16,400 2,700 Climbing FlightAware
11:34PM -25.7624 153.1525 151° Southeast 366 421 17,800 2,520 Climbing Aus ATC (RADAR)
11:34PM -25.7830 153.1600 151° Southeast 367 422 18,100 2,520 Climbing FlightAware
11:35PM -25.8360 153.1780 151° Southeast 372 428 19,700 2,400 Climbing Aus ATC (RADAR)
11:35PM -25.8590 153.1860 151° Southeast 376 433 19,900 1,620 Climbing FlightAware
11:36PM -25.9260 153.2090 163° South 388 447 21,300 2,100 Climbing FlightAware
11:37PM -26.0040 153.2360 163° South 396 456 22,900 2,340 Climbing FlightAware
11:37PM -26.0588 153.2557 163° South 399 459 24,100 2,100 Climbing Aus ATC (RADAR)
11:37PM -26.0760 153.2610 163° South 403 464 24,300 1,740 Climbing FlightAware
11:38PM -26.1470 153.2850 163° South 403 464 25,700 2,160 Climbing FlightAware
11:39PM -26.2260 153.3130 162° South 398 458 27,400 2,280 Climbing FlightAware
11:39PM -26.2981 153.3372 162° South 396 456 28,800 1,800 Climbing Aus ATC (RADAR)
11:39PM -26.2980 153.3380 162° South 399 459 28,600 840 Descending FlightAware
11:40PM -26.3609 153.3595 162° South 405 466 29,300 780 Climbing Aus ATC (RADAR)
11:40PM -26.3790 153.3660 162° South 416 479 29,200 1,020 Descending FlightAware
11:40PM -26.4257 153.3817 162° South 417 480 29,900 1,020 Climbing Aus ATC (RADAR)
11:41PM -26.4540 153.3910 162° South 426 490 29,900 1,020 Level FlightAware
11:41PM -26.4916 153.4053 162° South 426 490 30,500 1,200 Climbing Aus ATC (RADAR)
11:41PM -26.5400 153.4210 162° South 432 497 30,800 900 Climbing FlightAware
11:42PM -26.6160 153.4480 162° South 433 498 31,600 1,620 Climbing FlightAware
11:42PM -26.6541 153.4623 162° South 433 498 32,300 1,020 Climbing Aus ATC (RADAR)
11:43PM -26.6920 153.4750 162° South 436 502 32,300 780 Level FlightAware
11:43PM -26.7698 153.4843 162° South 418 481 33,100 780 Climbing Aus ATC (RADAR)
11:44PM -26.7790 153.4800 162° South 404 465 32,900 900 Descending FlightAware
11:44PM -26.8525 153.4641 162° South 407 468 33,800 1,020 Climbing Aus ATC (RADAR)
11:44PM -26.8520 153.4640 162° South 406 467 33,600 1,020 Descending FlightAware
11:45PM -26.9171 153.4491 162° South 407 468 34,400 900 Climbing Aus ATC (RADAR)
11:45PM -26.9270 153.4470 162° South 408 470 34,200 840 Descending FlightAware
11:45PM -26.9820 153.4348 162° South 409 471 34,900 900 Climbing Aus ATC (RADAR)
11:46PM -27.0110 153.4280 162° South 408 470 34,900 1,020 Level FlightAware
11:46PM -27.0467 153.4202 162° South 408 470 35,500 1,020 Climbing Aus ATC (RADAR)
11:46PM -27.0950 153.4090 162° South 406 467 35,700 660 Climbing FlightAware
11:47PM -27.1680 153.3930 191° South 405 466 36,300 1,200 Climbing FlightAware
11:47PM -27.2215 153.3802 191° South 406 467 37,000 900 Climbing Aus ATC (RADAR)
11:48PM -27.2380 153.3760 191° South 405 466 36,900 600 Descending FlightAware
11:48PM -27.3220 153.3570 191° South 402 463 37,600 720 Climbing FlightAware
11:49PM -27.3920 153.3340 196° South 383 441 38,000 540 Climbing FlightAware
11:50PM -27.4545 153.2977 196° South 385 443 38,300  Climbing Aus ATC (RADAR)
11:50PM -27.4630 153.2930 196° South 379 436 38,000  Descending FlightAware
11:50PM -27.5092 153.2655 196° South 386 444 38,300  Climbing Aus ATC (RADAR)
11:51PM -27.5260 153.2560 196° South 380 437 38,000 -180 Descending FlightAware
11:51PM -27.5711 153.2300 196° South 380 437 38,200  Climbing Aus ATC (RADAR)
11:51PM -27.5860 153.2210 196° South 380 437 38,000 -240 Descending FlightAware
11:52PM -27.6590 153.1780 208° Southwest 382 440 38,000 120 Level FlightAware
11:52PM -27.7040 153.1510 208° Southwest 387 445 38,200  Climbing Aus ATC (RADAR)
11:53PM -27.7220 153.1410 208° Southwest 382 440 38,000 -240 Descending FlightAware
11:53PM -27.7910 153.1010 207° Southwest 384 442 38,000  Level FlightAware
11:54PM -27.8560 153.0630 207° Southwest 384 442 38,000 240 Level FlightAware
11:55PM -27.9164 153.0261 207° Southwest 387 445 38,300  Climbing Aus ATC (RADAR)
11:55PM -27.9160 153.0270 207° Southwest 384 442 38,000  Descending FlightAware
11:55PM -27.9718 152.9939 207° Southwest 386 444 38,300  Climbing Aus ATC (RADAR)
11:55PM -27.9890 152.9840 207° Southwest 386 444 38,000  Descending FlightAware
11:56PM -28.0274 152.9607 207° Southwest 387 445 38,300  Climbing Aus ATC (RADAR)
11:56PM -28.0510 152.9480 207° Southwest 386 444 38,000 -300 Descending FlightAware
11:57PM -28.1180 152.9120 205° Southwest 393 452 38,000 180 Level FlightAware
11:57PM -28.1932 152.8785 205° Southwest 395 455 38,300  Climbing Aus ATC (RADAR)
11:58PM -28.1930 152.8790 205° Southwest 393 452 38,000  Descending FlightAware
11:58PM -28.2354 152.8598 205° Southwest 392 451 38,300  Climbing Aus ATC (RADAR)
11:58PM -28.2630 152.8480 205° Southwest 392 451 38,000 -300 Descending FlightAware
11:59PM -28.3390 152.8140 201° Southwest 392 451 38,000 240 Level FlightAware
11:59PM -28.3785 152.7961 201° Southwest 390 449 38,300  Climbing Aus ATC (RADAR)
12:00AM -28.4030 152.7850 201° Southwest 391 450 38,000 -300 Descending FlightAware
12:00AM -28.4790 152.7510 201° Southwest 392 451 38,000  Level FlightAware
12:01AM -28.5490 152.7200 201° Southwest 392 451 38,000  Level FlightAware
12:02AM -28.6170 152.6890 202° Southwest 394 453 38,000 180 Level FlightAware
12:02AM -28.6909 152.6559 202° Southwest 394 453 38,300  Climbing Aus ATC (RADAR)
12:02AM -28.6940 152.6550 202° Southwest 395 455 38,000  Descending FlightAware
12:03AM -28.7334 152.6369 202° Southwest 396 456 38,300  Climbing Aus ATC (RADAR)
12:03AM -28.7600 152.6250 202° Southwest 395 455 38,000  Descending FlightAware
12:04AM -28.8355 152.5908 202° Southwest 396 456 38,300  Climbing Aus ATC (RADAR)
12:04AM -28.8290 152.5950 202° Southwest 395 455 38,000 -420 Descending FlightAware
12:05AM -28.9070 152.5590 202° Southwest 397 457 38,000 180 Level FlightAware
12:05AM -28.9720 152.5291 202° Southwest 398 458 38,300  Climbing Aus ATC (RADAR)
12:05AM -28.9710 152.5300 202° Southwest 397 457 38,000  Descending FlightAware
12:06AM -29.0322 152.5021 202° Southwest 399 459 38,300  Climbing Aus ATC (RADAR)
12:06AM -29.0500 152.4940 202° Southwest 399 459 38,000 -360 Descending FlightAware
12:07AM -29.1210 152.4620 201° Southwest 398 458 38,000  Level FlightAware
12:07AM -29.1880 152.4320 201° Southwest 397 457 38,000 120 Level FlightAware
12:08AM -29.2466 152.4062 201° Southwest 397 457 38,200  Climbing Aus ATC (RADAR)
12:08AM -29.2670 152.3960 201° Southwest 396 456 38,000 -240 Descending FlightAware
12:09AM -29.3360 152.3650 201° Southwest 396 456 38,000  Level FlightAware
12:09AM -29.4120 152.3310 201° Southwest 396 456 38,000 180 Level FlightAware
12:10AM -29.4768 152.3021 201° Southwest 396 456 38,300  Climbing Aus ATC (RADAR)
12:10AM -29.4810 152.2990 201° Southwest 397 457 38,000 -180 Descending FlightAware
12:11AM -29.5358 152.2748 201° Southwest 396 456 38,200  Climbing Aus ATC (RADAR)
12:11AM -29.5480 152.2680 201° Southwest 397 457 38,000 120 Descending FlightAware
12:11AM -29.5958 152.2475 201° Southwest 398 458 38,300  Climbing Aus ATC (RADAR)
12:12AM -29.6250 152.2330 201° Southwest 399 459 38,000 -300 Descending FlightAware
12:12AM -29.6950 152.2010 202° Southwest 401 461 38,000 240 Level FlightAware
12:13AM -29.7416 152.1799 202° Southwest 401 461 38,300  Climbing Aus ATC (RADAR)
12:13AM -29.7640 152.1700 202° Southwest 403 464 38,000 -300 Descending FlightAware
12:14AM -29.8430 152.1340 202° Southwest 404 465 38,000  Level FlightAware
12:14AM -29.9100 152.1020 202° Southwest 405 466 38,000 180 Level FlightAware
12:15AM -29.9850 152.0684 202° Southwest 407 468 38,300  Climbing Aus ATC (RADAR)
12:15AM -29.9910 152.0650 202° Southwest 407 468 38,000  Descending FlightAware
12:15AM -30.0462 152.0402 202° Southwest 408 470 38,300  Climbing Aus ATC (RADAR)
12:16AM -30.0540 152.0370 202° Southwest 407 468 38,000  Descending FlightAware
12:16AM -30.1075 152.0125 202° Southwest 406 467 38,300  Climbing Aus ATC (RADAR)
12:16AM -30.1260 152.0030 202° Southwest 407 468 38,000  Descending FlightAware
12:17AM -30.1684 151.9838 202° Southwest 407 468 38,300  Climbing Aus ATC (RADAR)
12:17AM -30.2080 151.9650 202° Southwest 408 470 38,000 -240 Descending FlightAware
12:18AM -30.2940 151.9250 202° Southwest 408 470 38,000 180 Level FlightAware
12:18AM -30.3613 151.8943 202° Southwest 409 471 38,300  Climbing Aus ATC (RADAR)
12:19AM -30.3810 151.8850 202° Southwest 401 461 38,000  Descending FlightAware
12:19AM -30.4226 151.8655 202° Southwest 409 471 38,300  Climbing Aus ATC (RADAR)
12:20AM -30.4780 151.8390 202° Southwest 402 463 38,000 -240 Descending FlightAware
12:20AM -30.5560 151.8030 202° Southwest 403 464 38,000  Level FlightAware
12:21AM -30.6260 151.7710 201° Southwest 403 464 38,000 240 Level FlightAware
12:22AM -30.6865 151.7425 201° Southwest 410 472 38,300  Climbing Aus ATC (RADAR)
12:22AM -30.6830 151.7440 201° Southwest 404 465 38,000 -360 Descending FlightAware
12:22AM -30.7740 151.7020 202° Southwest 404 465 38,000 240 Level FlightAware
12:23AM -30.8190 151.6800 202° Southwest 413 475 38,300  Climbing Aus ATC (RADAR)
12:23AM -30.8540 151.6640 202° Southwest 412 474 38,000  Descending FlightAware
12:24AM -30.9248 151.6308 202° Southwest 411 473 38,300  Climbing Aus ATC (RADAR)
12:24AM -30.9180 151.6340 202° Southwest 411 473 38,000  Descending FlightAware
12:25AM -31.0040 151.5935 202° Southwest 410 472 38,300  Climbing Aus ATC (RADAR)
12:25AM -31.0180 151.5870 202° Southwest 410 472 38,000  Descending FlightAware
12:25AM -31.0655 151.5642 202° Southwest 410 472 38,300  Climbing Aus ATC (RADAR)
12:25AM -31.0780 151.5580 202° Southwest 411 473 38,000  Descending FlightAware
12:26AM -31.1272 151.5354 202° Southwest 411 473 38,300  Climbing Aus ATC (RADAR)
12:26AM -31.1710 151.5140 202° Southwest 413 475 38,000  Descending FlightAware
12:27AM -31.2513 151.4770 202° Southwest 413 475 38,300  Climbing Aus ATC (RADAR)
12:27AM -31.2540 151.4750 202° Southwest 414 476 38,000 -420 Descending FlightAware
12:28AM -31.3220 151.4430 202° Southwest 414 476 38,000 180 Level FlightAware
12:28AM -31.3939 151.4099 202° Southwest 413 475 38,300  Climbing Aus ATC (RADAR)
12:28AM -31.3880 151.4120 202° Southwest 416 479 38,000  Descending FlightAware
12:29AM -31.4630 151.3779 202° Southwest 415 478 38,300  Climbing Aus ATC (RADAR)
12:29AM -31.4580 151.3800 202° Southwest 419 482 38,000  Descending FlightAware
12:30AM -31.5388 151.3450 202° Southwest 417 480 38,300  Climbing Aus ATC (RADAR)
12:30AM -31.5450 151.3420 202° Southwest 419 482 38,000 -180 Descending FlightAware
12:30AM -31.6021 151.3165 202° Southwest 418 481 38,200  Climbing Aus ATC (RADAR)
12:30AM -31.6330 151.3030 202° Southwest 420 483 38,000 120 Descending FlightAware
12:31AM -31.6656 151.2881 202° Southwest 419 482 38,300  Climbing Aus ATC (RADAR)
12:31AM -31.6850 151.2790 202° Southwest 420 483 38,000 -180 Descending FlightAware
12:31AM -31.7291 151.2593 202° Southwest 419 482 38,200  Climbing Aus ATC (RADAR)
12:32AM -31.7670 151.2420 202° Southwest 419 482 38,000 -180 Descending FlightAware
12:32AM -31.8490 151.2050 201° Southwest 419 482 38,000  Level FlightAware
12:33AM -31.9200 151.1730 201° Southwest 418 481 38,000 120 Level FlightAware
12:34AM -31.9875 151.1432 201° Southwest 415 478 38,200 -300 Climbing Aus ATC (RADAR)
12:34AM -32.0080 151.1330 201° Southwest 413 475 37,800 -1,560 Descending FlightAware
12:34AM -32.0440 151.1174 201° Southwest 410 472 37,400 -2,400 Descending Aus ATC (RADAR)
12:35AM -32.0750 151.1030 201° Southwest 406 467 36,400 -2,580 Descending FlightAware
12:35AM -32.1230 151.0823 201° Southwest 403 464 35,500 -2,400 Descending Aus ATC (RADAR)
12:35AM -32.1490 151.0700 201° Southwest 407 468 34,600 -2,400 Descending FlightAware
12:36AM -32.1842 151.0552 201° Southwest 400 460 34,100 -2,040 Descending Aus ATC (RADAR)
12:36AM -32.2250 151.0360 201° Southwest 391 450 33,100 -2,520 Descending FlightAware
12:37AM -32.2950 151.0040 201° Southwest 391 450 31,200 -2,340 Descending FlightAware
12:37AM -32.3740 150.9690 201° Southwest 384 442 29,800 -1,740 Descending FlightAware
12:38AM -32.4425 150.9380 201° Southwest 396 456 28,800 -1,800 Descending Aus ATC (RADAR)
12:38AM -32.4360 150.9400 201° Southwest 402 463 28,600 -1,920 Descending FlightAware
12:39AM -32.4871 150.9206 201° Southwest 403 464 28,000 -1,800 Descending Aus ATC (RADAR)
12:39AM -32.5070 150.9190 201° Southwest 412 474 27,400 -2,040 Descending FlightAware
12:39AM -32.5944 150.9295 201° Southwest 398 458 26,100 -2,160 Descending Aus ATC (RADAR)
12:40AM -32.5950 150.9290 201° Southwest 404 465 25,800 -1,860 Descending FlightAware
12:40AM -32.6630 150.9410 172° South 395 455 24,700 -1,800 Descending FlightAware
12:41AM -32.7390 150.9550 172° South 383 441 23,600 -2,100 Descending Aus ATC (RADAR)
12:41AM -32.7310 150.9540 172° South 390 449 23,500 -1,920 Descending FlightAware
12:41AM -32.8013 150.9660 172° South 379 436 22,500 -1,980 Descending Aus ATC (RADAR)
12:41AM -32.8060 150.9670 172° South 386 444 22,200 -1,920 Descending FlightAware
12:42AM -32.8629 150.9769 172° South 376 433 21,400 -1,800 Descending Aus ATC (RADAR)
12:42AM -32.8950 150.9820 172° South 388 447 20,600 -1,920 Descending FlightAware
12:43AM -32.9700 150.9960 171° South 394 453 19,300 -1,920 Descending FlightAware
12:43AM -33.0239 151.0057 171° South 383 441 18,600 -1,980 Descending Aus ATC (RADAR)
12:44AM -33.0460 151.0100 171° South 386 444 18,000 -1,920 Descending FlightAware
12:44AM -33.1190 151.0230 172° South 378 435 16,700 -1,500 Descending FlightAware
12:45AM -33.1930 151.0360 172° South 402 463 15,900 -1,140 Descending FlightAware
12:46AM -33.2680 151.0500 171° South 419 482 15,200 -1,080 Descending FlightAware
12:46AM -33.3426 151.0641 171° South 409 471 14,600 -1,320 Descending Aus ATC (RADAR)
12:47AM -33.3800 151.0710 171° South 417 480 13,900 -1,800 Descending FlightAware
12:47AM -33.4347 151.0816 171° South 412 474 13,200 -2,280 Descending Aus ATC (RADAR)
12:47AM -33.4510 151.0850 171° South 406 467 12,600 -2,280 Descending FlightAware
12:48AM -33.5260 151.0991 171° South 396 456 11,300 -2,400 Descending Aus ATC (RADAR)
12:48AM -33.5350 151.1010 171° South 392 451 10,800 -2,940 Descending FlightAware
12:49AM -33.5822 151.1102 171° South 379 436 9,800 -2,820 Descending Aus ATC (RADAR)
12:49AM -33.5880 151.1110 171° South 391 450 9,400 -2,280 Descending FlightAware
12:49AM -33.6380 151.1240 168° South 380 437 8,400 -1,860 Descending FlightAware
12:50AM -33.6740 151.1410 159° South 370 426 7,700 -1,740 Descending FlightAware
12:50AM -33.6950 151.1550 151° Southeast 364 419 7,400 -1,080 Descending FlightAware
12:50AM -33.7380 151.1820 152° Southeast 364 419 7,000 -900 Descending FlightAware
12:51AM -33.7840 151.2120 152° Southeast 361 415 6,500 -900 Descending FlightAware
12:51AM -33.8250 151.2380 152° Southeast 355 409 6,100 -660 Descending FlightAware
12:52AM -33.8718 151.2677 152° Southeast 325 374 5,900 -600 Descending Aus ATC (RADAR)
12:52AM -33.8800 151.2730 152° Southeast 314 361 5,700 -480 Descending FlightAware
12:52AM -33.9010 151.2860 153° Southeast 297 342 5,700 120 Level FlightAware
12:53AM -33.9330 151.3070 151° Southeast 282 325 5,800 120 Climbing FlightAware
12:53AM -33.9410 151.3120 153° Southeast 279 321 5,800  Level FlightAware
12:53AM -33.9730 151.3270 159° South 277 319 5,800 60 Level FlightAware
12:54AM -34.0095 151.3370 159° South 278 320 5,900 -900 Climbing Aus ATC (RADAR)
12:54AM -34.0210 151.3400 159° South 280 322 5,300 -1,860 Descending FlightAware
12:54AM -34.0340 151.3440 166° South 282 325 4,900 -1,560 Descending FlightAware
12:55AM -34.0827 151.3508 166° South 281 323 4,200 -1,920 Descending Aus ATC (RADAR)
12:55AM -34.0730 151.3520 166° South 288 331 4,100 -1,080 Descending FlightAware
12:55AM -34.1142 151.2986 166° South 260 299 3,400 -960 Descending Aus ATC (RADAR)
12:56AM -34.0960 151.2595 299° West 231 266 2,900 -1,080 Descending Aus ATC (RADAR)
12:56AM -34.0880 151.2500 299° West 214 246 2,500 -1,200 Descending FlightAware
12:56AM -34.0718 151.2307 299° West 206 237 2,200 -1,080 Descending Aus ATC (RADAR)
12:57AM -34.0432 151.2125 332° Northwest 183 211 1,500 -1,260 Descending Aus ATC (RADAR)
12:57AM -34.0290 151.2090 332° Northwest 153 176 900 -840 Descending FlightAware
12:58AM -34.0084 151.2037 332° Northwest 141 162 800 -600 Descending Aus ATC (RADAR)
12:58AM -34.0090 151.2040 332° Northwest 130 150 600 -1,320 Descending FlightAware
12:58AM -33.9940 151.2000 348° North 135 155 200 -780 Descending FlightAware
12:59AM -33.9840 151.1970 346° North 137 158 100 -420 Descending FlightAware
12:59AM -33.9660 151.1930 350° North 131 151 -240 Descending FlightAware
12:59AM -33.9580 151.1910 348° North 82 94  Level FlightAware
01:00AM -33.9520 151.1880 337° Northwest 38 44  Level FlightAware
01:00AM -33.9510 151.1860 301° West 22 25  Level FlightAware
01:00AM -33.9510 151.1850 270° West 20 23  Level FlightAware
01:01AM -33.9520 151.1820 248° West 21 24  Level FlightAware
01:01AM -33.9500 151.1790 309° West 23 26  Level FlightAware
01:02AM -33.9470 151.1790 360° North 19 22  Level FlightAware
01:02AM -33.9450 151.1780 337° Northwest 17 20  Level FlightAware
01:03AM -33.9440 151.1780 360° North 17 20  Level FlightAware
01:03AM -33.9420 151.1770 337° Northwest 20 23  Level FlightAware
01:04AM -33.9390 151.1760 345° North 16 18  Level FlightAware
01:04AM -33.9380 151.1760 360° North 12 14  Level FlightAware
01:06AM -33.9360 151.1760 360° North 6 7  Level FlightAware
01:07AM -33.9360 151.1770 90° East 4 5  Level FlightAware
01:07AM -33.9370 151.1780 140° Southeast 8 9  Level FlightAware